Terminal Aerodrome Forecast
Issued by NWS San Angelo, TX

Home | Current Version | Previous Version | Text Only | Print | Product List | Glossary On
Versions: 1 2 3 4 5 6 7 8 9 10 11 12 13 14 15
000
FTUS44 KSJT 011100
TAFSJT
TAF
KSJT 011140Z 0112/0212 VRB05KT P6SM FEW250
     FM011600 15010G16KT P6SM SCT250
     FM020000 15008KT P6SM SCT250
     FM021100 17010KT P6SM BKN020=

USA.gov is the U.S. government's official web portal to all federal, state and local government web resources and services.